Donceel, Belgium
Current Conditions -  °F | °C
As of 2:50 AM on Monday 22 Dec 2014 (Local Time) from EBLG Reporting Station
Broken Clouds Broken Clouds  
Wind Chill: 36°   Ceiling: 1100
Heat Index: 45°   Visibility: 6mi
Dew Point: 41°   Wind: 23mph
Humidity: 87%   Direction: 230°SW
Pressure: 30.24"   Gusts: NA
Location:  50.65°N, 5.32°E
Report Text: EBLG 220150Z 23020KT 9999 FEW009 BKN011 07/05 Q1024 TEMPO 23022G35KT BKN010
Loading
Personal Weather Stations






























Interactive Weather Map New forecast layout! Learn more

10-Day Weather Forecast

Advertisements
Track Severe Weather on mobile